createdAt,value
2022-08-25T00:01:50.065Z,100253.22
2022-08-25T00:04:19.869Z,100253.84
2022-08-25T00:06:49.810Z,100251.34
2022-08-25T00:09:21.793Z,100260.66
2022-08-25T00:11:50.821Z,100258.16
2022-08-25T00:14:22.959Z,100261.28
2022-08-25T00:16:51.446Z,100264.97
2022-08-25T00:19:22.990Z,100254.44
2022-08-25T00:21:51.949Z,100260.66
2022-08-25T00:24:22.178Z,100254.88
2022-08-25T00:26:53.906Z,100253.44
2022-08-25T00:29:23.189Z,100256.91
2022-08-25T00:33:15.593Z,100261.25
2022-08-25T00:35:44.031Z,100259.00
2022-08-25T00:38:12.976Z,100256.31
2022-08-25T00:40:42.484Z,100268.06
2022-08-25T00:43:11.268Z,100279.47
2022-08-25T00:45:40.675Z,100274.69
2022-08-25T00:48:09.045Z,100268.06
2022-08-25T00:50:38.714Z,100275.50
2022-08-25T00:53:08.639Z,100271.59
2022-08-25T00:55:40.592Z,100277.16
2022-08-25T00:58:14.664Z,100276.34
2022-08-25T01:00:47.214Z,100278.19
2022-08-25T01:03:15.740Z,100272.44
2022-08-25T01:05:46.714Z,100273.88
2022-08-25T01:08:16.240Z,100272.84
2022-08-25T01:10:46.431Z,100272.63
2022-08-25T01:13:20.037Z,100270.13
2022-08-25T01:15:51.176Z,100269.69
2022-08-25T01:18:19.599Z,100267.47
2022-08-25T01:20:51.477Z,100266.00
2022-08-25T01:23:20.219Z,100265.56
2022-08-25T01:25:54.372Z,100269.69
2022-08-25T01:28:22.784Z,100265.16
2022-08-25T01:30:51.200Z,100259.78
2022-08-25T01:33:19.715Z,100260.81
2022-08-25T01:35:48.247Z,100256.72
2022-08-25T01:38:21.029Z,100260.19
2022-08-25T01:40:51.568Z,100252.75
2022-08-25T01:43:31.705Z,100261.84
2022-08-25T01:46:00.076Z,100266.19
2022-08-25T01:48:28.384Z,100265.56
2022-08-25T01:50:56.646Z,100264.31
2022-08-25T01:53:29.833Z,100261.41
2022-08-25T01:56:09.682Z,100255.66
2022-08-25T01:58:40.351Z,100260.56
2022-08-25T02:01:12.607Z,100264.06
2022-08-25T02:03:42.691Z,100262.00
2022-08-25T02:06:14.228Z,100261.84
2022-08-25T02:08:44.811Z,100253.09
2022-08-25T02:11:14.948Z,100248.16
2022-08-25T02:13:44.037Z,100269.66
2022-08-25T02:16:18.395Z,100256.25
2022-08-25T02:18:47.354Z,100264.66
2022-08-25T02:21:15.800Z,100273.34
2022-08-25T02:23:45.881Z,100269.66
2022-08-25T02:26:16.901Z,100271.50
2022-08-25T02:28:46.969Z,100276.00
2022-08-25T02:31:16.362Z,100278.28
2022-08-25T02:33:44.728Z,100270.63
2022-08-25T02:36:13.322Z,100279.31
2022-08-25T02:38:41.972Z,100267.06
2022-08-25T02:41:14.750Z,100274.53
2022-08-25T02:43:44.747Z,100280.13
2022-08-25T02:46:13.722Z,100267.91
2022-08-25T02:48:42.148Z,100278.22
2022-08-25T02:51:12.409Z,100274.97
2022-08-25T02:53:42.449Z,100279.06
2022-08-25T02:56:13.246Z,100279.06
2022-08-25T02:58:43.083Z,100276.59
2022-08-25T03:01:12.808Z,100280.34
2022-08-25T03:03:43.611Z,100278.19
2022-08-25T03:06:13.517Z,100285.69
2022-08-25T03:08:43.319Z,100286.28
2022-08-25T03:11:13.619Z,100283.22
2022-08-25T03:13:42.118Z,100285.69
2022-08-25T03:16:12.345Z,100281.19
2022-08-25T03:18:43.148Z,100299.13
2022-08-25T03:21:12.605Z,100286.47
2022-08-25T03:23:41.495Z,100297.84
2022-08-25T03:26:27.628Z,100299.69
2022-08-25T03:28:57.246Z,100301.34
2022-08-25T03:31:26.954Z,100304.66
2022-08-25T03:33:55.762Z,100301.59
2022-08-25T03:36:24.310Z,100310.88
2022-08-25T03:38:53.225Z,100300.94
2022-08-25T03:41:24.398Z,100314.75
2022-08-25T03:43:58.172Z,100315.03
2022-08-25T03:46:29.083Z,100307.19
2022-08-25T03:48:58.304Z,100308.03
2022-08-25T03:51:27.541Z,100310.53
2022-08-25T03:53:56.476Z,100300.59
2022-08-25T03:56:24.824Z,100303.09
2022-08-25T03:58:53.041Z,100322.91
2022-08-25T04:01:22.841Z,100323.19
2022-08-25T04:03:51.353Z,100310.72
2022-08-25T04:06:20.846Z,100306.22
2022-08-25T04:08:49.415Z,100307.19
2022-08-25T04:11:20.044Z,100307.84
2022-08-25T04:13:49.676Z,100324.00
2022-08-25T04:16:20.363Z,100301.47
2022-08-25T04:18:51.126Z,100299.63
2022-08-25T04:21:21.401Z,100297.97
2022-08-25T04:23:50.833Z,100293.63
2022-08-25T04:26:21.549Z,100296.50
2022-08-25T04:28:50.476Z,100296.09
2022-08-25T04:31:20.098Z,100317.16
2022-08-25T04:33:50.820Z,100301.47
2022-08-25T04:36:20.530Z,100286.97
2022-08-25T04:38:50.101Z,100288.66
2022-08-25T04:41:20.018Z,100292.69
2022-08-25T04:43:48.410Z,100302.84
2022-08-25T04:46:20.359Z,100282.44
2022-08-25T04:48:52.012Z,100299.00
2022-08-25T04:51:23.482Z,100291.06
2022-08-25T04:53:52.577Z,100303.25
2022-08-25T04:56:26.240Z,100287.53
2022-08-25T04:58:55.570Z,100286.94
2022-08-25T05:01:26.458Z,100294.22
2022-08-25T05:03:59.426Z,100280.78
2022-08-25T05:06:28.930Z,100284.06
2022-08-25T05:08:57.892Z,100294.03
2022-08-25T05:11:27.573Z,100286.56
2022-08-25T05:13:58.301Z,100296.06
2022-08-25T05:16:27.725Z,100292.97
2022-08-25T05:18:58.052Z,100280.81
2022-08-25T05:21:28.750Z,100299.63
2022-08-25T05:23:58.053Z,100281.00
2022-08-25T05:26:30.226Z,100275.41
2022-08-25T05:28:59.118Z,100285.34
2022-08-25T05:31:29.046Z,100271.91
2022-08-25T05:33:59.734Z,100263.44
2022-08-25T05:36:29.683Z,100289.06
2022-08-25T05:38:58.171Z,100273.59
2022-08-25T05:41:28.619Z,100267.38
2022-08-25T05:43:56.992Z,100280.41
2022-08-25T05:46:25.984Z,100272.75
2022-08-25T05:48:55.049Z,100270.06
2022-08-25T05:51:24.593Z,100264.88
2022-08-25T05:53:53.452Z,100270.47
2022-08-25T05:56:22.071Z,100256.41
2022-08-25T05:58:51.040Z,100284.16
2022-08-25T06:01:40.744Z,100252.09
2022-08-25T06:04:12.062Z,100258.94
2022-08-25T06:06:42.611Z,100257.66
2022-08-25T06:09:11.847Z,100251.91
2022-08-25T06:11:40.519Z,100249.84
2022-08-25T06:14:09.415Z,100258.28
2022-08-25T06:16:38.931Z,100278.78
2022-08-25T06:19:09.184Z,100247.34
2022-08-25T06:21:39.216Z,100252.91
2022-08-25T06:24:15.230Z,100268.84
2022-08-25T06:26:44.152Z,100250.88
2022-08-25T06:29:14.191Z,100257.03
2022-08-25T06:31:43.426Z,100246.34
2022-08-25T06:34:11.961Z,100246.16
2022-08-25T06:36:40.415Z,100252.31
2022-08-25T06:39:10.803Z,100260.19
2022-08-25T06:41:40.031Z,100247.19
2022-08-25T06:44:08.292Z,100240.19
2022-08-25T06:46:37.181Z,100238.28
2022-08-25T06:49:05.769Z,100233.72
2022-08-25T06:51:36.254Z,100229.59
2022-08-25T06:54:06.462Z,100230.03
2022-08-25T06:56:36.181Z,100226.75
2022-08-25T06:59:06.068Z,100218.50
2022-08-25T07:01:35.042Z,100242.47
2022-08-25T07:04:10.331Z,100216.41
2022-08-25T07:06:40.343Z,100210.63
2022-08-25T07:09:10.887Z,100201.13
2022-08-25T07:11:41.184Z,100208.75
2022-08-25T07:14:11.060Z,100200.09
2022-08-25T07:16:48.556Z,100189.16
2022-08-25T07:19:21.027Z,100201.13
2022-08-25T07:21:53.225Z,100176.94
2022-08-25T07:24:22.438Z,100188.75
2022-08-25T07:26:52.179Z,100181.28
2022-08-25T07:29:32.181Z,100184.16
2022-08-25T07:32:01.910Z,100182.94
2022-08-25T07:34:51.838Z,100187.50
2022-08-25T07:37:48.054Z,100182.53
2022-08-25T07:40:14.929Z,100158.16
2022-08-25T07:42:45.359Z,100166.25
2022-08-25T07:45:15.614Z,100159.81
2022-08-25T07:50:39.294Z,100172.22
2022-08-25T07:53:07.822Z,100171.81
2022-08-25T07:55:37.635Z,100175.50
2022-08-25T07:58:09.178Z,100185.06
2022-08-25T08:00:38.594Z,100148.44
2022-08-25T08:03:12.899Z,100138.94
2022-08-25T08:05:52.715Z,100143.06
2022-08-25T08:08:21.045Z,100139.97
2022-08-25T08:11:05.531Z,100147.88
2022-08-25T08:13:41.142Z,100141.66
2022-08-25T08:16:11.045Z,100161.75
2022-08-25T08:18:42.668Z,100148.91
2022-08-25T08:21:13.951Z,100132.94
2022-08-25T08:23:49.218Z,100152.81
2022-08-25T08:26:18.235Z,100147.63
2022-08-25T08:28:52.029Z,100169.13
2022-08-25T08:31:21.476Z,100141.66
2022-08-25T08:33:49.777Z,100136.69
2022-08-25T08:36:19.330Z,100146.19
2022-08-25T08:38:49.418Z,100142.50
2022-08-25T08:42:11.910Z,100153.03
2022-08-25T08:45:04.921Z,100118.88
2022-08-25T08:47:56.224Z,100113.94
2022-08-25T08:50:33.806Z,100121.00
2022-08-25T08:53:08.793Z,100117.66
2022-08-25T08:55:40.275Z,100110.66
2022-08-25T08:58:14.409Z,100116.03
2022-08-25T09:00:52.151Z,100108.59
2022-08-25T09:03:34.808Z,100099.91
2022-08-25T09:06:08.938Z,100112.13
2022-08-25T09:08:44.617Z,100090.41
2022-08-25T09:11:26.567Z,100095.56
2022-08-25T09:14:10.613Z,100118.94
2022-08-25T09:16:57.560Z,100104.25
2022-08-25T09:19:41.942Z,100079.66
2022-08-25T09:22:35.431Z,100080.25
2022-08-25T09:25:12.090Z,100064.34
2022-08-25T09:27:46.861Z,100072.19
2022-08-25T09:30:18.434Z,100070.78
2022-08-25T09:32:52.514Z,100074.28
2022-08-25T09:35:24.244Z,100075.50
2022-08-25T09:38:01.887Z,100084.63
2022-08-25T09:40:32.591Z,100043.66
2022-08-25T09:43:03.202Z,100097.03
2022-08-25T09:45:36.292Z,100061.88
2022-08-25T09:48:22.902Z,100061.47
2022-08-25T09:50:52.538Z,100070.97
2022-08-25T09:53:21.843Z,100041.59
2022-08-25T09:55:59.865Z,100065.56
2022-08-25T09:58:29.442Z,100038.47
2022-08-25T10:01:16.634Z,100042.44
2022-08-25T10:03:58.918Z,100049.88
2022-08-25T10:06:31.272Z,100039.94
2022-08-25T10:09:03.192Z,100045.09
2022-08-25T10:11:43.643Z,100059.78
2022-08-25T10:14:23.961Z,100047.38
2022-08-25T10:16:54.659Z,100042.00
2022-08-25T10:19:30.240Z,100041.81
2022-08-25T10:22:08.536Z,100071.78
2022-08-25T10:24:44.201Z,100061.84
2022-08-25T10:27:29.234Z,100054.00
2022-08-25T10:30:19.252Z,100044.47
2022-08-25T10:33:17.940Z,100045.72
2022-08-25T10:36:00.108Z,100038.69
2022-08-25T10:38:38.265Z,100031.03
2022-08-25T10:41:29.783Z,100048.41
2022-08-25T10:44:06.975Z,100025.44
2022-08-25T10:46:45.582Z,100037.25
2022-08-25T10:49:19.824Z,100032.47
2022-08-25T10:51:55.739Z,100026.50
2022-08-25T10:54:37.047Z,100023.38
2022-08-25T10:57:15.190Z,100056.47
2022-08-25T10:59:59.011Z,100020.91
2022-08-25T11:03:03.420Z,100031.03
2022-08-25T11:05:40.702Z,100008.28
2022-08-25T11:08:15.620Z,100018.41
2022-08-25T11:10:50.534Z,99998.97
2022-08-25T11:13:28.015Z,100013.84
2022-08-25T11:16:18.859Z,99999.34
2022-08-25T11:18:57.292Z,100002.66
2022-08-25T11:21:34.785Z,100017.16
2022-08-25T11:24:20.830Z,100012.22
2022-08-25T11:26:58.032Z,100012.19
2022-08-25T11:29:31.484Z,100016.31
2022-08-25T11:32:02.025Z,100021.50
2022-08-25T11:34:34.117Z,100013.66
2022-08-25T11:37:11.178Z,100008.47
2022-08-25T11:40:16.171Z,100000.41
2022-08-25T11:43:09.539Z,99989.22
2022-08-25T11:46:09.861Z,99985.50
2022-08-25T11:48:48.222Z,99982.78
2022-08-25T11:51:33.637Z,99993.53
2022-08-25T11:54:18.790Z,99993.16
2022-08-25T11:56:57.364Z,99992.53
2022-08-25T12:00:02.794Z,99979.66
2022-08-25T12:02:39.200Z,99981.56
2022-08-25T12:05:09.954Z,99983.19
2022-08-25T12:08:26.389Z,99976.59
2022-08-25T12:11:06.121Z,99973.28
2022-08-25T12:13:47.604Z,99971.22
2022-08-25T12:16:42.059Z,99971.59
2022-08-25T12:19:49.590Z,99977.81
2022-08-25T12:22:41.445Z,99966.84
2022-08-25T12:25:21.584Z,99990.22
2022-08-25T12:28:00.931Z,99958.78
2022-08-25T12:30:40.181Z,99985.09
2022-08-25T12:33:14.621Z,99972.00
2022-08-25T12:35:56.648Z,99967.84
2022-08-25T12:38:35.087Z,99971.59
2022-08-25T12:41:10.990Z,99967.84
2022-08-25T12:43:42.360Z,99975.72
2022-08-25T12:46:39.561Z,99956.66
2022-08-25T12:49:29.903Z,99980.03
2022-08-25T12:52:02.685Z,99964.91
2022-08-25T12:54:48.424Z,99969.22
2022-08-25T12:57:40.444Z,99964.88
2022-08-25T13:00:18.418Z,99965.06
2022-08-25T13:03:14.516Z,99964.44
2022-08-25T13:06:25.398Z,99968.59
2022-08-25T13:09:24.238Z,99950.41
2022-08-25T13:11:55.024Z,99958.31
2022-08-25T13:14:37.904Z,99978.63
2022-08-25T13:17:07.209Z,99948.38
2022-08-25T13:19:38.581Z,99958.56
2022-08-25T13:22:16.544Z,99970.16
2022-08-25T13:24:50.969Z,99964.06
2022-08-25T13:27:23.410Z,99959.56
2022-08-25T13:29:55.815Z,99950.47
2022-08-25T13:32:32.256Z,99956.28
2022-08-25T13:35:17.553Z,99951.31
2022-08-25T13:37:48.056Z,99977.81
2022-08-25T13:40:26.269Z,99950.69
2022-08-25T13:42:59.263Z,99962.50
2022-08-25T13:45:34.777Z,99947.00
2022-08-25T13:48:22.724Z,99938.03
2022-08-25T13:50:52.695Z,99934.75
2022-08-25T13:53:24.441Z,99953.19
2022-08-25T13:55:57.342Z,99944.31
2022-08-25T13:58:39.018Z,99943.44
2022-08-25T14:01:22.748Z,99947.16
2022-08-25T14:04:27.936Z,99958.13
2022-08-25T14:07:13.813Z,99939.31
2022-08-25T14:09:49.437Z,99941.41
2022-08-25T14:12:38.128Z,99940.16
2022-08-25T14:15:14.183Z,99936.19
2022-08-25T14:20:27.336Z,99938.91
2022-08-25T14:22:58.608Z,99933.91
2022-08-25T14:25:28.394Z,99940.94
2022-08-25T14:28:07.617Z,99950.50
2022-08-25T14:30:43.476Z,99937.00
2022-08-25T14:33:17.888Z,99943.81
2022-08-25T14:35:52.460Z,99933.88
2022-08-25T14:38:25.076Z,99933.44
2022-08-25T14:40:54.106Z,99934.44
2022-08-25T14:43:31.350Z,99938.56
2022-08-25T14:46:02.598Z,99942.31
2022-08-25T14:48:37.114Z,99946.88
2022-08-25T14:51:06.327Z,99929.03
2022-08-25T14:53:35.329Z,99932.72
2022-08-25T14:56:08.399Z,99926.34
2022-08-25T14:58:50.815Z,99919.09
2022-08-25T15:01:29.374Z,99905.63
2022-08-25T15:04:07.723Z,99914.09
2022-08-25T15:06:37.473Z,99914.34
2022-08-25T15:09:11.161Z,99917.69
2022-08-25T15:11:41.931Z,99906.91
2022-08-25T15:14:15.672Z,99914.13
2022-08-25T15:16:46.692Z,99918.72
2022-08-25T15:19:17.136Z,99917.25
2022-08-25T15:21:48.235Z,99915.63
2022-08-25T15:24:18.318Z,99902.38
2022-08-25T15:29:28.149Z,99908.75
2022-08-25T15:32:00.354Z,99909.75
2022-08-25T15:34:29.026Z,99908.91
2022-08-25T15:36:58.452Z,99900.19
2022-08-25T15:39:27.717Z,99904.72
2022-08-25T15:41:57.262Z,99913.66
2022-08-25T15:44:29.696Z,99906.00
2022-08-25T15:46:58.609Z,99912.03
2022-08-25T15:49:29.676Z,99920.53
2022-08-25T15:52:00.073Z,99918.44
2022-08-25T15:54:29.567Z,99912.66
2022-08-25T15:57:00.448Z,99926.53
2022-08-25T15:59:30.649Z,99929.44
2022-08-25T16:01:59.833Z,99926.75
2022-08-25T16:04:29.907Z,99927.13
2022-08-25T16:06:58.799Z,99937.09
2022-08-25T16:09:27.806Z,99927.53
2022-08-25T16:12:02.641Z,99936.28
2022-08-25T16:14:35.376Z,99926.75
2022-08-25T16:17:04.067Z,99932.13
2022-08-25T16:19:33.072Z,99938.53
2022-08-25T16:22:02.199Z,99926.53
2022-08-25T16:24:30.886Z,99919.47
2022-08-25T16:27:11.793Z,99928.38
2022-08-25T16:29:43.959Z,99928.81
2022-08-25T16:32:14.176Z,99918.25
2022-08-25T16:34:44.296Z,99920.31
2022-08-25T16:37:13.053Z,99925.91
2022-08-25T16:39:44.293Z,99923.78
2022-08-25T16:42:12.875Z,99930.03
2022-08-25T16:44:42.604Z,99931.28
2022-08-25T16:47:14.107Z,99935.00
2022-08-25T16:49:42.855Z,99938.38
2022-08-25T16:52:25.417Z,99946.00
2022-08-25T16:55:15.967Z,99927.59
2022-08-25T16:57:47.612Z,99926.31
2022-08-25T17:00:21.970Z,99932.56
2022-08-25T17:02:54.341Z,99943.31
2022-08-25T17:05:22.814Z,99930.47
2022-08-25T17:08:05.019Z,99936.28
2022-08-25T17:10:36.622Z,99933.59
2022-08-25T17:13:05.311Z,99949.50
2022-08-25T17:15:35.172Z,99926.75
2022-08-25T17:18:03.558Z,99940.88
2022-08-25T17:20:32.858Z,99932.81
2022-08-25T17:23:03.544Z,99927.59
2022-08-25T17:25:43.240Z,99918.31
2022-08-25T17:28:12.530Z,99923.50
2022-08-25T17:30:43.581Z,99917.91
2022-08-25T17:33:12.415Z,99919.94
2022-08-25T17:35:41.787Z,99918.91
2022-08-25T17:38:10.109Z,99923.69
2022-08-25T17:40:38.677Z,99916.88
2022-08-25T17:43:09.014Z,99930.13
2022-08-25T17:45:39.183Z,99915.00
2022-08-25T17:48:10.122Z,99918.09
2022-08-25T17:50:39.424Z,99902.16
2022-08-25T17:53:08.009Z,99911.69
2022-08-25T17:55:38.698Z,99911.50
2022-08-25T17:58:12.214Z,99904.47
2022-08-25T18:00:43.842Z,99924.31
2022-08-25T18:03:14.028Z,99917.50
2022-08-25T18:05:44.233Z,99904.44
2022-08-25T18:08:14.683Z,99900.94
2022-08-25T18:10:43.734Z,99908.19
2022-08-25T18:13:11.697Z,99902.00
2022-08-25T18:15:42.599Z,99909.44
2022-08-25T18:18:12.440Z,99898.69
2022-08-25T18:20:45.612Z,99900.75
2022-08-25T18:23:14.739Z,99888.34
2022-08-25T18:25:44.187Z,99891.25
2022-08-25T18:28:13.462Z,99895.78
2022-08-25T18:30:42.596Z,99880.69
2022-08-25T18:33:11.900Z,99879.63
2022-08-25T18:35:40.219Z,99884.22
2022-08-25T18:38:28.463Z,99890.03
2022-08-25T18:40:59.236Z,99878.63
2022-08-25T18:43:29.085Z,99881.31
2022-08-25T18:46:00.648Z,99879.63
2022-08-25T18:48:29.214Z,99873.22
2022-08-25T18:50:58.011Z,99882.59
2022-08-25T18:53:30.399Z,99885.28
2022-08-25T18:56:06.281Z,99891.50
2022-08-25T18:58:34.419Z,99870.78
2022-08-25T19:01:04.557Z,99882.59
2022-08-25T19:03:34.725Z,99866.44
2022-08-25T19:06:03.736Z,99874.72
2022-08-25T19:08:35.329Z,99876.16
2022-08-25T19:11:03.627Z,99874.94
2022-08-25T19:13:31.863Z,99871.44
2022-08-25T19:16:00.495Z,99860.69
2022-08-25T19:18:29.008Z,99869.19
2022-08-25T19:20:59.148Z,99859.41
2022-08-25T19:23:27.733Z,99851.56
2022-08-25T19:25:57.384Z,99856.97
2022-08-25T19:28:26.824Z,99851.78
2022-08-25T19:30:55.673Z,99855.72
2022-08-25T19:33:42.241Z,99854.25
2022-08-25T19:36:12.526Z,99864.00
2022-08-25T19:38:41.108Z,99854.06
2022-08-25T19:41:14.695Z,99865.66
2022-08-25T19:43:56.547Z,99846.19
2022-08-25T19:46:32.858Z,99828.41
2022-08-25T19:49:07.257Z,99841.66
2022-08-25T19:51:38.306Z,99849.94
2022-08-25T19:54:09.115Z,99839.78
2022-08-25T19:56:43.844Z,99837.31
2022-08-25T19:59:24.760Z,99863.16
2022-08-25T20:01:53.177Z,99849.50
2022-08-25T20:04:24.507Z,99856.38
2022-08-25T20:06:55.376Z,99859.44
2022-08-25T20:09:39.168Z,99858.00
2022-08-25T20:12:11.969Z,99861.31
2022-08-25T20:14:41.210Z,99861.09
2022-08-25T20:17:23.586Z,99861.91
2022-08-25T20:19:54.391Z,99865.44
2022-08-25T20:22:26.171Z,99869.00
2022-08-25T20:24:58.061Z,99864.81
2022-08-25T20:27:33.789Z,99864.81
2022-08-25T20:30:03.263Z,99873.94
2022-08-25T20:32:33.170Z,99863.78
2022-08-25T20:35:01.931Z,99883.44
2022-08-25T20:37:30.359Z,99879.91
2022-08-25T20:39:58.875Z,99873.31
2022-08-25T20:42:29.298Z,99875.00
2022-08-25T20:44:58.041Z,99869.84
2022-08-25T20:47:27.033Z,99864.03
2022-08-25T20:49:55.305Z,99878.94
2022-08-25T20:52:23.649Z,99874.38
2022-08-25T20:54:52.995Z,99875.22
2022-08-25T20:57:25.954Z,99883.91
2022-08-25T20:59:58.177Z,99880.16
2022-08-25T21:02:28.010Z,99874.16
2022-08-25T21:04:57.190Z,99874.38
2022-08-25T21:07:26.355Z,99866.09
2022-08-25T21:09:56.676Z,99882.03
2022-08-25T21:12:25.058Z,99874.78
2022-08-25T21:14:56.588Z,99876.84
2022-08-25T21:17:25.688Z,99870.66
2022-08-25T21:19:53.939Z,99879.53
2022-08-25T21:22:22.777Z,99874.78
2022-08-25T21:24:51.598Z,99870.47
2022-08-25T21:27:19.881Z,99880.59
2022-08-25T21:29:54.610Z,99878.94
2022-08-25T21:32:25.620Z,99887.03
2022-08-25T21:34:56.245Z,99875.22
2022-08-25T21:37:25.889Z,99877.31
2022-08-25T21:39:54.462Z,99881.00
2022-08-25T21:42:23.980Z,99884.34
2022-08-25T21:44:53.769Z,99874.38
2022-08-25T21:47:23.164Z,99878.13
2022-08-25T21:49:53.092Z,99874.63
2022-08-25T21:52:21.652Z,99866.56
2022-08-25T21:54:49.946Z,99867.16
2022-08-25T21:57:23.689Z,99875.44
2022-08-25T21:59:52.804Z,99875.63
2022-08-25T22:02:23.288Z,99870.25
2022-08-25T22:04:56.345Z,99874.84
2022-08-25T22:07:25.267Z,99867.34
2022-08-25T22:09:55.103Z,99868.19
2022-08-25T22:12:24.915Z,99862.81
2022-08-25T22:14:53.380Z,99867.56
2022-08-25T22:17:24.239Z,99863.03
2022-08-25T22:19:54.096Z,99852.47
2022-08-25T22:22:24.043Z,99859.72
2022-08-25T22:24:53.946Z,99856.81
2022-08-25T22:27:23.366Z,99861.59
2022-08-25T22:29:52.749Z,99857.84
2022-08-25T22:32:21.587Z,99860.53
2022-08-25T22:34:50.235Z,99845.47
2022-08-25T22:37:18.998Z,99859.91
2022-08-25T22:39:48.738Z,99853.09
2022-08-25T22:42:17.226Z,99859.91
2022-08-25T22:44:45.609Z,99867.59
2022-08-25T22:47:14.111Z,99872.78
2022-08-25T22:49:42.676Z,99865.94
2022-08-25T22:52:13.031Z,99859.13
2022-08-25T22:54:42.346Z,99865.28
2022-08-25T22:57:11.970Z,99865.75
2022-08-25T22:59:40.714Z,99870.69
2022-08-25T23:02:09.498Z,99861.81
2022-08-25T23:04:41.218Z,99870.09
2022-08-25T23:07:12.696Z,99852.91
2022-08-25T23:09:41.236Z,99856.63
2022-08-25T23:12:11.413Z,99859.13
2022-08-25T23:14:42.032Z,99852.91
2022-08-25T23:17:12.459Z,99848.78
2022-08-25T23:19:40.725Z,99849.81
2022-08-25T23:22:11.555Z,99851.69
2022-08-25T23:24:42.599Z,99849.00
2022-08-25T23:27:15.019Z,99846.94
2022-08-25T23:29:46.224Z,99845.88
2022-08-25T23:32:15.258Z,99835.53
2022-08-25T23:34:46.660Z,99838.22
2022-08-25T23:37:18.828Z,99836.16
2022-08-25T23:39:49.578Z,99838.03
2022-08-25T23:42:20.513Z,99843.63
2022-08-25T23:44:50.224Z,99836.59
2022-08-25T23:47:18.823Z,99842.56
2022-08-25T23:49:48.438Z,99830.53
2022-08-25T23:52:17.781Z,99823.94
2022-08-25T23:54:46.952Z,99835.97
2022-08-25T23:57:15.271Z,99828.53
2022-08-25T23:59:45.042Z,99829.75
